createdAt,value
2024-05-09T00:01:46.826Z,62.42
2024-05-09T00:04:49.674Z,62.27
2024-05-09T00:07:52.529Z,62.03
2024-05-09T00:10:55.335Z,62.01
2024-05-09T00:13:58.233Z,62.12
2024-05-09T00:17:00.983Z,62.02
2024-05-09T00:20:10.933Z,61.95
2024-05-09T00:23:16.836Z,62.04
2024-05-09T00:26:19.661Z,61.87
2024-05-09T00:29:22.942Z,61.88
2024-05-09T00:32:25.906Z,61.94
2024-05-09T00:35:29.073Z,61.88
2024-05-09T00:38:32.013Z,61.89
2024-05-09T00:41:34.962Z,61.72
2024-05-09T00:44:37.800Z,61.66
2024-05-09T00:47:42.794Z,61.70
2024-05-09T00:50:46.736Z,61.61
2024-05-09T00:53:49.633Z,61.58
2024-05-09T00:56:53.072Z,61.45
2024-05-09T00:59:56.281Z,61.53
2024-05-09T01:02:59.302Z,61.58
2024-05-09T01:06:02.310Z,61.60
2024-05-09T01:09:05.190Z,61.75
2024-05-09T01:12:08.539Z,61.59
2024-05-09T01:15:11.447Z,61.78
2024-05-09T01:18:14.872Z,62.03
2024-05-09T01:21:17.882Z,62.24
2024-05-09T01:24:20.630Z,62.47
2024-05-09T01:27:23.409Z,62.35
2024-05-09T01:30:33.021Z,61.99
2024-05-09T01:33:38.516Z,61.74
2024-05-09T01:36:41.544Z,61.60
2024-05-09T01:39:44.331Z,61.65
2024-05-09T01:42:47.069Z,61.79
2024-05-09T01:45:49.744Z,61.84
2024-05-09T01:48:52.565Z,61.84
2024-05-09T01:51:55.409Z,62.04
2024-05-09T01:54:58.695Z,62.17
2024-05-09T01:58:02.439Z,62.29
2024-05-09T02:01:05.676Z,62.21
2024-05-09T02:04:08.734Z,61.66
2024-05-09T02:07:11.572Z,61.33
2024-05-09T02:10:20.426Z,61.41
2024-05-09T02:13:28.716Z,61.86
2024-05-09T02:16:31.523Z,61.77
2024-05-09T02:19:34.342Z,61.69
2024-05-09T02:22:37.264Z,61.55
2024-05-09T02:25:40.718Z,61.12
2024-05-09T02:28:43.548Z,60.95
2024-05-09T02:31:46.462Z,60.69
2024-05-09T02:34:49.330Z,60.50
2024-05-09T02:37:52.154Z,60.50
2024-05-09T02:40:54.839Z,60.37
2024-05-09T02:43:57.740Z,60.56
2024-05-09T02:47:00.525Z,60.56
2024-05-09T02:50:04.571Z,60.96
2024-05-09T02:53:09.931Z,60.86
2024-05-09T02:56:12.991Z,60.74
2024-05-09T02:59:15.976Z,60.71
2024-05-09T03:02:18.877Z,60.64
2024-05-09T03:05:21.860Z,60.52
2024-05-09T03:08:25.933Z,60.64
2024-05-09T03:11:28.839Z,60.93
2024-05-09T03:14:31.740Z,61.17
2024-05-09T03:17:34.751Z,61.01
2024-05-09T03:20:38.735Z,61.24
2024-05-09T03:23:43.172Z,61.57
2024-05-09T03:26:46.397Z,61.76
2024-05-09T03:29:49.143Z,62.00
2024-05-09T03:32:51.993Z,62.42
2024-05-09T03:35:54.863Z,62.71
2024-05-09T03:38:57.846Z,63.11
2024-05-09T03:42:00.655Z,63.66
2024-05-09T03:45:03.745Z,63.99
2024-05-09T03:48:08.825Z,63.62
2024-05-09T03:51:12.009Z,62.84
2024-05-09T03:54:14.839Z,62.17
2024-05-09T03:57:17.619Z,62.05
2024-05-09T04:00:30.408Z,61.92
2024-05-09T04:03:38.962Z,61.83
2024-05-09T04:06:42.435Z,61.77
2024-05-09T04:09:45.150Z,61.66
2024-05-09T04:12:47.814Z,61.70
2024-05-09T04:15:50.553Z,61.59
2024-05-09T04:18:53.435Z,61.86
2024-05-09T04:21:56.330Z,64.37
2024-05-09T04:24:59.113Z,66.09
2024-05-09T04:28:02.011Z,64.71
2024-05-09T04:31:05.092Z,64.09
2024-05-09T04:34:07.948Z,64.10
2024-05-09T04:37:10.883Z,64.34
2024-05-09T04:40:24.114Z,64.12
2024-05-09T04:43:34.694Z,63.56
2024-05-09T04:46:38.955Z,63.97
2024-05-09T04:49:42.013Z,63.11
2024-05-09T04:52:44.673Z,62.81
2024-05-09T04:55:47.638Z,62.20
2024-05-09T04:58:50.537Z,61.69
2024-05-09T05:01:53.529Z,61.04
2024-05-09T05:04:56.563Z,60.54
2024-05-09T05:08:00.039Z,60.02
2024-05-09T05:11:03.176Z,59.73
2024-05-09T05:14:06.003Z,59.55
2024-05-09T05:17:09.001Z,58.96
2024-05-09T05:20:15.253Z,58.77
2024-05-09T05:23:22.144Z,59.24
2024-05-09T05:26:24.931Z,60.92
2024-05-09T05:29:27.859Z,61.11
2024-05-09T05:32:30.814Z,62.39
2024-05-09T05:35:34.429Z,62.22
2024-05-09T05:38:37.433Z,61.28
2024-05-09T05:41:40.269Z,60.52
2024-05-09T05:44:42.968Z,59.21
2024-05-09T05:47:46.054Z,58.75
2024-05-09T05:50:49.056Z,57.51
2024-05-09T05:53:51.933Z,55.67
2024-05-09T05:56:54.656Z,57.45
2024-05-09T05:59:57.304Z,58.90
2024-05-09T06:03:00.103Z,58.74
2024-05-09T06:06:03.754Z,59.24
2024-05-09T06:09:06.832Z,59.00
2024-05-09T06:12:09.722Z,57.29
2024-05-09T06:15:12.688Z,57.32
2024-05-09T06:18:15.834Z,56.66
2024-05-09T06:21:18.699Z,55.64
2024-05-09T06:24:21.387Z,55.06
2024-05-09T06:27:24.204Z,54.59
2024-05-09T06:30:36.501Z,54.79
2024-05-09T06:33:42.510Z,54.26
2024-05-09T06:36:45.446Z,54.63
2024-05-09T06:39:48.172Z,53.77
2024-05-09T06:42:51.102Z,52.75
2024-05-09T06:45:53.823Z,51.91
2024-05-09T06:48:56.967Z,51.01
2024-05-09T06:51:59.857Z,51.99
2024-05-09T06:55:02.612Z,50.53
2024-05-09T06:58:06.848Z,51.77
2024-05-09T07:01:09.734Z,51.45
2024-05-09T07:04:12.793Z,50.49
2024-05-09T07:07:15.810Z,50.20
2024-05-09T07:10:25.802Z,50.31
2024-05-09T07:13:35.356Z,50.34
2024-05-09T07:16:38.076Z,50.87
2024-05-09T07:19:40.921Z,50.31
2024-05-09T07:22:43.856Z,50.47
2024-05-09T07:25:46.704Z,48.99
